Time;durP1;ratioP1;P1;durP2;ratioP2;P2;SDS_P1;SDS_P2;PMS_P1;PMS_P2;Temp;Humidity;BMP_temperature;BMP_pressure;BME280_temperature;BME280_humidity;BME280_pressure;Samples;Min_cycle;Max_cycle;Signal;HPM_P1;HPM_P2
2022/12/18 00:02:21;;;;;;;45.20;18.87;;;-4.50;99.90;;;;;;5015548;28;20456;-68
2022/12/18 00:04:48;;;;;;;42.47;18.33;;;-4.50;99.90;;;;;;5015656;28;20457;-68
2022/12/18 00:07:15;;;;;;;38.53;19.10;;;-4.60;99.90;;;;;;5015508;28;20457;-68
2022/12/18 00:09:42;;;;;;;44.40;18.37;;;-4.60;99.90;;;;;;5015779;28;20487;-68
2022/12/18 00:12:09;;;;;;;50.23;18.37;;;-4.60;99.90;;;;;;5015507;28;20536;-67
2022/12/18 00:14:37;;;;;;;36.90;17.87;;;-4.60;99.90;;;;;;5015376;28;20454;-68
2022/12/18 00:17:04;;;;;;;48.70;19.53;;;-4.60;99.90;;;;;;5015436;28;20461;-68
2022/12/18 00:19:31;;;;;;;34.60;17.43;;;-4.60;99.90;;;;;;5016533;28;20851;-69
2022/12/18 00:21:58;;;;;;;48.20;18.20;;;-4.70;99.90;;;;;;5015420;28;20629;-67
2022/12/18 00:24:25;;;;;;;40.43;18.57;;;-4.60;99.90;;;;;;5015283;28;20902;-69
2022/12/18 00:26:52;;;;;;;48.87;20.60;;;-4.50;99.90;;;;;;5015238;28;20544;-68
2022/12/18 00:29:19;;;;;;;51.33;18.87;;;-4.50;99.90;;;;;;5015918;28;20576;-69
2022/12/18 00:31:47;;;;;;;42.53;19.57;;;-4.40;99.90;;;;;;5014941;28;20493;-69
2022/12/18 00:34:14;;;;;;;45.27;20.17;;;-4.40;99.90;;;;;;5014911;28;20475;-69
2022/12/18 00:36:42;;;;;;;44.73;19.40;;;-4.40;99.90;;;;;;5014918;28;20937;-68
2022/12/18 00:39:11;;;;;;;50.80;19.70;;;-4.50;99.90;;;;;;5014506;28;20460;-69
2022/12/18 00:44:22;;;;;;;38.37;16.90;;;-4.40;99.90;;;;;;5014947;28;20421;-69
2022/12/18 00:46:50;;;;;;;44.53;20.67;;;-4.40;99.90;;;;;;5014248;28;20485;-68
2022/12/18 00:49:19;;;;;;;39.57;19.07;;;-4.40;99.90;;;;;;5014014;28;20477;-67
2022/12/18 00:51:46;;;;;;;47.80;20.10;;;-4.40;99.90;;;;;;5014134;28;20457;-68
2022/12/18 00:54:13;;;;;;;42.40;21.40;;;-4.40;99.90;;;;;;5014075;28;20544;-68
2022/12/18 00:56:40;;;;;;;53.83;21.40;;;-4.40;99.90;;;;;;5013915;28;20518;-67
2022/12/18 00:59:07;;;;;;;40.63;19.03;;;-4.40;99.90;;;;;;5014721;28;20453;-66
2022/12/18 01:01:34;;;;;;;43.17;20.23;;;-4.40;99.90;;;;;;5014670;28;20464;-68
2022/12/18 01:04:04;;;;;;;44.60;17.77;;;-4.50;99.90;;;;;;5014304;28;20464;-67
2022/12/18 01:06:31;;;;;;;41.23;16.80;;;-4.60;99.90;;;;;;5014478;28;20573;-67
2022/12/18 01:08:58;;;;;;;39.17;18.33;;;-4.70;99.90;;;;;;5006263;28;20487;-69
2022/12/18 01:11:25;;;;;;;41.93;18.60;;;-4.70;99.90;;;;;;5014499;28;20565;-69
2022/12/18 01:13:53;;;;;;;38.90;17.83;;;-4.70;99.90;;;;;;5014417;28;20488;-68
2022/12/18 01:16:20;;;;;;;41.67;18.50;;;-4.80;99.90;;;;;;5014779;28;20457;-67
2022/12/18 01:18:47;;;;;;;39.43;18.77;;;-4.80;99.90;;;;;;5014549;28;20578;-68
2022/12/18 01:21:17;;;;;;;42.27;18.17;;;-4.70;99.90;;;;;;5014407;28;20460;-67
2022/12/18 01:23:47;;;;;;;45.30;19.13;;;-4.70;99.90;;;;;;5014260;28;20956;-68
2022/12/18 01:26:16;;;;;;;46.67;20.80;;;-4.60;99.90;;;;;;5014780;28;20788;-68
2022/12/18 01:28:44;;;;;;;39.60;17.23;;;-4.60;99.90;;;;;;5014697;28;20556;-68
2022/12/18 01:31:16;;;;;;;50.23;18.47;;;-4.50;99.90;;;;;;5014255;28;20457;-69
2022/12/18 01:33:44;;;;;;;40.23;18.33;;;-4.50;99.90;;;;;;5013685;28;20528;-67
2022/12/18 01:36:18;;;;;;;39.67;18.27;;;-4.40;99.90;;;;;;5014229;28;20499;-69
2022/12/18 01:38:45;;;;;;;44.43;19.47;;;-4.40;99.90;;;;;;5013764;28;20506;-67
2022/12/18 01:41:12;;;;;;;42.00;18.53;;;-4.40;99.90;;;;;;5013520;28;20833;-66
2022/12/18 01:43:50;;;;;;;55.27;21.10;;;-4.30;99.90;;;;;;5013555;28;20461;-67
2022/12/18 01:46:19;;;;;;;48.43;19.10;;;-4.20;99.90;;;;;;5013409;28;20492;-67
2022/12/18 01:48:49;;;;;;;35.93;16.67;;;-4.20;99.90;;;;;;5013173;28;20481;-68
2022/12/18 01:51:18;;;;;;;40.60;17.70;;;-4.20;99.90;;;;;;5013271;28;20442;-67
2022/12/18 01:53:47;;;;;;;34.07;18.80;;;-4.30;99.90;;;;;;5013423;28;20465;-68
2022/12/18 01:56:16;;;;;;;39.10;17.87;;;-4.20;99.90;;;;;;5013107;28;20467;-68
2022/12/18 01:58:51;;;;;;;33.00;17.20;;;-4.20;99.90;;;;;;5013087;28;20956;-66
2022/12/18 02:01:18;;;;;;;38.17;17.77;;;-4.20;99.90;;;;;;5044028;28;20472;-68
2022/12/18 02:03:46;;;;;;;36.33;17.47;;;-4.20;99.90;;;;;;5054492;28;20458;-69
2022/12/18 02:06:20;;;;;;;36.70;16.60;;;-4.30;99.90;;;;;;5054307;28;20996;-68
2022/12/18 02:08:59;;;;;;;36.73;17.23;;;-4.30;99.90;;;;;;5054410;28;20467;-68
2022/12/18 02:11:37;;;;;;;38.90;18.73;;;-4.40;99.90;;;;;;5054498;28;20748;-68
2022/12/18 02:14:17;;;;;;;41.93;18.87;;;-4.40;99.90;;;;;;5054876;28;20459;-69
2022/12/18 02:16:51;;;;;;;33.90;17.70;;;-4.50;99.90;;;;;;5056354;28;20910;-68
2022/12/18 02:19:38;;;;;;;42.90;18.27;;;-4.60;99.90;;;;;;5058442;28;20517;-69
2022/12/18 02:22:22;;;;;;;37.03;17.63;;;-4.70;99.90;;;;;;5060865;28;20454;-67
2022/12/18 02:25:01;;;;;;;44.40;20.43;;;-4.80;99.90;;;;;;5060027;28;20451;-68
2022/12/18 02:27:33;;;;;;;40.47;19.10;;;-4.70;99.90;;;;;;5058707;28;20835;-66
2022/12/18 02:30:02;;;;;;;39.73;18.50;;;-4.70;99.90;;;;;;5058255;28;20477;-67
2022/12/18 02:32:31;;;;;;;41.00;19.00;;;-4.80;99.90;;;;;;5057935;28;20545;-68
2022/12/18 02:35:00;;;;;;;51.70;20.13;;;-4.90;99.90;;;;;;5057903;28;20465;-69
2022/12/18 02:37:29;;;;;;;41.20;19.70;;;-5.00;99.90;;;;;;5058153;28;20833;-68
2022/12/18 02:39:59;;;;;;;36.20;18.13;;;-5.00;99.90;;;;;;5058165;28;20542;-67
2022/12/18 02:42:26;;;;;;;46.43;22.90;;;-5.00;99.90;;;;;;5058098;28;20455;-68
2022/12/18 02:44:58;;;;;;;42.50;20.67;;;-4.90;99.90;;;;;;5058126;28;20759;-67
2022/12/18 02:47:32;;;;;;;41.90;19.57;;;-4.80;99.90;;;;;;5057877;28;20831;-68
2022/12/18 02:50:08;;;;;;;45.87;20.40;;;-4.80;99.90;;;;;;5057959;28;20513;-68
2022/12/18 02:52:43;;;;;;;48.63;21.70;;;-4.80;99.90;;;;;;5058119;28;20449;-68
2022/12/18 02:55:20;;;;;;;53.10;20.60;;;-4.90;99.90;;;;;;5058071;28;20910;-68
2022/12/18 02:57:53;;;;;;;49.70;22.20;;;-4.90;99.90;;;;;;5058148;28;20884;-68
2022/12/18 03:00:25;;;;;;;51.77;21.43;;;-4.90;99.90;;;;;;5057983;28;20440;-68
2022/12/18 03:03:01;;;;;;;44.43;20.87;;;-5.00;99.90;;;;;;5057788;28;20774;-67
2022/12/18 03:05:34;;;;;;;56.07;22.13;;;-5.00;99.90;;;;;;5057827;28;20443;-68
2022/12/18 03:08:08;;;;;;;55.97;22.40;;;-5.10;99.90;;;;;;5057774;28;20446;-69
2022/12/18 03:10:40;;;;;;;51.53;21.70;;;-5.10;99.90;;;;;;5057612;28;20495;-67
2022/12/18 03:13:10;;;;;;;55.67;21.47;;;-5.10;99.90;;;;;;5057528;28;20526;-67
2022/12/18 03:15:42;;;;;;;54.07;22.70;;;-5.10;99.90;;;;;;5057649;28;20449;-68
2022/12/18 03:18:14;;;;;;;53.83;23.37;;;-5.10;99.90;;;;;;5058228;28;20451;-68
2022/12/18 03:20:44;;;;;;;52.77;22.10;;;-5.10;99.90;;;;;;5057421;28;20477;-67
2022/12/18 03:23:15;;;;;;;59.67;22.70;;;-5.10;99.90;;;;;;5057303;28;20522;-67
2022/12/18 03:25:45;;;;;;;49.93;19.83;;;-5.10;99.90;;;;;;5057420;28;20453;-68
2022/12/18 03:28:16;;;;;;;66.17;26.27;;;-5.10;99.90;;;;;;5056395;28;20451;-68
2022/12/18 03:30:46;;;;;;;63.60;25.87;;;-5.00;99.90;;;;;;5057208;28;20477;-67
2022/12/18 03:33:19;;;;;;;60.40;24.60;;;-4.90;99.90;;;;;;5056681;28;20465;-68
2022/12/18 03:35:47;;;;;;;56.40;25.60;;;-4.90;99.90;;;;;;5056947;28;20870;-68
2022/12/18 03:38:14;;;;;;;66.73;28.57;;;-4.90;99.90;;;;;;5056963;28;20459;-68
2022/12/18 03:40:51;;;;;;;66.33;25.63;;;-4.90;99.90;;;;;;5056929;28;20451;-67
2022/12/18 03:43:25;;;;;;;82.40;26.67;;;-4.90;99.90;;;;;;5057011;28;20443;-68
2022/12/18 03:46:02;;;;;;;53.40;25.30;;;-4.90;99.90;;;;;;5056228;28;20995;-69
2022/12/18 03:48:35;;;;;;;64.77;25.33;;;-4.80;99.90;;;;;;5056475;28;20439;-68
2022/12/18 03:51:06;;;;;;;56.67;22.47;;;-4.80;99.90;;;;;;5056424;28;20880;-68
2022/12/18 03:53:40;;;;;;;60.67;24.50;;;-4.90;99.90;;;;;;5056421;28;20537;-68
2022/12/18 03:56:09;;;;;;;56.87;23.40;;;-4.90;99.90;;;;;;5056655;28;20447;-68
2022/12/18 03:58:39;;;;;;;68.27;24.23;;;-5.00;99.90;;;;;;5056653;28;20459;-67
2022/12/18 04:01:08;;;;;;;52.13;21.57;;;-5.00;99.90;;;;;;5056057;28;20513;-68
2022/12/18 04:03:37;;;;;;;54.23;21.93;;;-5.00;99.90;;;;;;5056092;28;20525;-68
2022/12/18 04:06:05;;;;;;;51.93;21.97;;;-5.10;99.90;;;;;;5056446;28;20459;-68
2022/12/18 04:08:34;;;;;;;50.60;20.60;;;-5.10;99.90;;;;;;5056634;28;20459;-68
2022/12/18 04:11:01;;;;;;;53.50;21.80;;;-5.10;99.90;;;;;;5056596;28;20479;-68
2022/12/18 04:13:30;;;;;;;57.67;21.37;;;-5.10;99.90;;;;;;5056402;28;20459;-67
2022/12/18 04:15:57;;;;;;;48.27;19.67;;;-5.10;99.90;;;;;;5056464;28;20770;-67
2022/12/18 04:18:25;;;;;;;55.67;20.70;;;-5.00;99.90;;;;;;5055802;28;20549;-68
2022/12/18 04:20:52;;;;;;;45.40;20.30;;;-4.90;99.90;;;;;;5056219;28;20755;-67
2022/12/18 04:23:19;;;;;;;47.43;19.67;;;-4.90;99.90;;;;;;5055911;28;20916;-68
2022/12/18 04:25:47;;;;;;;43.23;21.00;;;-4.90;99.90;;;;;;5056222;28;20554;-68
2022/12/18 04:28:14;;;;;;;46.70;19.40;;;-4.90;99.90;;;;;;5055983;28;20455;-68
2022/12/18 04:30:41;;;;;;;42.73;20.17;;;-5.00;99.90;;;;;;5055594;28;20585;-69
2022/12/18 04:33:10;;;;;;;45.50;20.90;;;-5.10;99.90;;;;;;5055911;28;20455;-67
2022/12/18 04:35:38;;;;;;;41.33;18.33;;;-5.10;99.90;;;;;;5055997;28;20829;-68
2022/12/18 04:38:06;;;;;;;56.27;19.10;;;-5.10;99.90;;;;;;5055679;28;20554;-68
2022/12/18 04:40:33;;;;;;;41.93;17.90;;;-5.20;99.90;;;;;;5055932;28;20482;-67
2022/12/18 04:43:00;;;;;;;41.00;17.70;;;-5.30;99.90;;;;;;5055625;28;20554;-67
2022/12/18 04:45:27;;;;;;;51.63;17.90;;;-5.30;99.90;;;;;;5055455;28;20455;-68
2022/12/18 04:47:54;;;;;;;40.67;19.40;;;-5.40;99.90;;;;;;5055381;28;20446;-69
2022/12/18 04:50:21;;;;;;;48.43;19.97;;;-5.50;99.90;;;;;;5055623;28;20570;-68
2022/12/18 04:52:49;;;;;;;38.97;18.60;;;-5.40;99.90;;;;;;5055416;28;20942;-68
2022/12/18 04:55:16;;;;;;;47.90;19.50;;;-5.50;99.90;;;;;;5055291;28;20978;-67
2022/12/18 04:57:43;;;;;;;45.53;19.50;;;-5.40;99.90;;;;;;5055295;28;20451;-67
2022/12/18 05:00:11;;;;;;;44.97;19.80;;;-5.30;99.90;;;;;;5055263;28;20447;-67
2022/12/18 05:02:38;;;;;;;41.60;18.77;;;-5.30;99.90;;;;;;5055011;28;20455;-69
2022/12/18 05:05:05;;;;;;;43.63;20.67;;;-5.20;99.90;;;;;;5055440;28;20546;-68
2022/12/18 05:07:32;;;;;;;46.30;18.70;;;-5.20;99.90;;;;;;5055366;28;20789;-68
2022/12/18 05:10:00;;;;;;;44.50;18.03;;;-5.10;99.90;;;;;;5054984;28;20485;-68
2022/12/18 05:12:27;;;;;;;38.50;17.37;;;-5.10;99.90;;;;;;5055102;28;20459;-69
2022/12/18 05:14:54;;;;;;;39.90;17.77;;;-5.30;99.90;;;;;;5055835;28;20465;-68
2022/12/18 05:17:21;;;;;;;42.23;17.70;;;-5.50;99.90;;;;;;5055390;28;20455;-67
2022/12/18 05:19:48;;;;;;;43.40;20.00;;;-5.50;99.90;;;;;;5054762;28;20451;-67
2022/12/18 05:22:15;;;;;;;43.10;18.10;;;-5.50;99.90;;;;;;5055135;28;20482;-68
2022/12/18 05:24:42;;;;;;;38.77;16.80;;;-5.50;99.90;;;;;;5055078;28;20465;-67
2022/12/18 05:27:10;;;;;;;41.97;18.80;;;-5.60;99.90;;;;;;5054902;28;20455;-68
2022/12/18 05:29:37;;;;;;;48.50;19.43;;;-5.50;99.90;;;;;;5055226;28;20494;-68
2022/12/18 05:32:04;;;;;;;42.80;17.00;;;-5.40;99.90;;;;;;5055030;28;20793;-68
2022/12/18 05:34:30;;;;;;;42.90;18.10;;;-5.40;99.90;;;;;;5054562;28;20459;-67
2022/12/18 05:36:57;;;;;;;46.63;18.07;;;-5.40;99.90;;;;;;5054893;28;20486;-68
2022/12/18 05:39:24;;;;;;;45.13;16.90;;;-5.30;99.90;;;;;;5059055;28;20954;-69
2022/12/18 05:41:51;;;;;;;45.33;17.30;;;-5.30;99.90;;;;;;5054791;28;20645;-68
2022/12/18 05:44:19;;;;;;;42.33;17.40;;;-5.30;99.90;;;;;;5054773;28;20465;-68
2022/12/18 05:46:46;;;;;;;39.83;19.40;;;-5.30;99.90;;;;;;5054988;28;20545;-67
2022/12/18 05:49:13;;;;;;;50.77;19.90;;;-5.30;99.90;;;;;;5054998;28;20466;-67
2022/12/18 05:51:40;;;;;;;39.57;16.30;;;-5.30;99.90;;;;;;5054022;28;20455;-67
2022/12/18 05:54:06;;;;;;;41.07;16.77;;;-5.30;99.90;;;;;;5054814;28;20459;-68
2022/12/18 05:56:33;;;;;;;46.90;17.90;;;-5.20;99.90;;;;;;5054527;28;20465;-68
2022/12/18 05:59:00;;;;;;;40.83;18.00;;;-5.10;99.90;;;;;;5054635;28;20465;-67
2022/12/18 06:01:28;;;;;;;40.83;18.43;;;-5.10;99.90;;;;;;5054703;28;20858;-66
2022/12/18 06:03:56;;;;;;;51.03;19.50;;;-5.00;99.90;;;;;;5054721;28;20550;-68
2022/12/18 06:06:25;;;;;;;51.00;19.37;;;-5.00;99.90;;;;;;5054565;28;20469;-67
2022/12/18 06:08:52;;;;;;;39.57;17.57;;;-5.00;99.90;;;;;;5054180;28;20459;-68
2022/12/18 06:11:21;;;;;;;49.97;18.60;;;-4.90;99.90;;;;;;5054202;28;20533;-68
2022/12/18 06:13:51;;;;;;;47.80;18.60;;;-4.90;99.90;;;;;;5054383;28;20455;-67
2022/12/18 06:16:18;;;;;;;44.47;17.63;;;-4.80;99.90;;;;;;5054376;28;20465;-67
2022/12/18 06:18:46;;;;;;;49.43;20.80;;;-4.80;99.90;;;;;;5054238;28;20531;-68
2022/12/18 06:21:14;;;;;;;51.97;20.60;;;-4.90;99.90;;;;;;5054351;28;20486;-68
2022/12/18 06:23:41;;;;;;;49.87;21.63;;;-5.00;99.90;;;;;;5054620;28;20859;-68
2022/12/18 06:26:10;;;;;;;50.07;20.97;;;-5.00;99.90;;;;;;5054205;28;20534;-68
2022/12/18 06:28:37;;;;;;;54.30;21.60;;;-5.10;99.90;;;;;;5055204;28;20463;-67
2022/12/18 06:31:05;;;;;;;46.90;19.23;;;-5.20;99.90;;;;;;5054226;28;20479;-68
2022/12/18 06:33:33;;;;;;;47.50;23.03;;;-5.20;99.90;;;;;;5054537;28;20450;-68
2022/12/18 06:36:02;;;;;;;41.27;18.27;;;-5.20;99.90;;;;;;5054307;28;20907;-67
2022/12/18 06:38:29;;;;;;;42.53;18.30;;;-5.20;99.90;;;;;;5054068;28;20455;-67
2022/12/18 06:40:56;;;;;;;53.33;21.47;;;-5.30;99.90;;;;;;5046336;28;20772;-67
2022/12/18 06:43:23;;;;;;;52.30;20.37;;;-5.20;99.90;;;;;;5054050;28;20522;-67
2022/12/18 06:45:52;;;;;;;49.47;20.67;;;-5.20;99.90;;;;;;5054120;28;20486;-68
2022/12/18 06:48:19;;;;;;;52.77;21.77;;;-5.10;99.90;;;;;;5054238;28;20440;-67
2022/12/18 06:50:46;;;;;;;48.73;22.40;;;-5.00;99.90;;;;;;5054453;28;20629;-66
2022/12/18 06:53:15;;;;;;;46.87;20.23;;;-5.00;99.90;;;;;;5054190;28;20455;-68
2022/12/18 06:55:41;;;;;;;50.40;19.73;;;-4.90;99.90;;;;;;5054092;28;20539;-68
2022/12/18 06:58:08;;;;;;;47.17;20.47;;;-4.70;99.90;;;;;;5054229;28;20455;-68
2022/12/18 07:00:35;;;;;;;48.60;21.50;;;-4.70;99.90;;;;;;5054118;28;20542;-68
2022/12/18 07:03:02;;;;;;;59.03;24.37;;;-4.80;99.90;;;;;;5054957;28;20451;-68
2022/12/18 07:05:29;;;;;;;55.67;23.07;;;-4.80;99.90;;;;;;5057999;28;20791;-67
2022/12/18 07:07:56;;;;;;;54.27;22.07;;;-4.90;99.90;;;;;;5057715;28;20924;-68
2022/12/18 07:10:24;;;;;;;57.67;21.70;;;-5.00;99.90;;;;;;5057910;28;20474;-68
2022/12/18 07:12:51;;;;;;;52.77;22.03;;;-5.10;99.90;;;;;;5057618;28;20459;-67
2022/12/18 07:15:18;;;;;;;54.57;22.30;;;-5.00;99.90;;;;;;5057712;28;20558;-67
2022/12/18 07:17:45;;;;;;;45.93;20.87;;;-5.00;99.90;;;;;;5057333;28;20465;-67
2022/12/18 07:20:12;;;;;;;54.57;21.47;;;-4.90;99.90;;;;;;5057458;28;20462;-67
2022/12/18 07:22:38;;;;;;;55.17;21.67;;;-4.90;99.90;;;;;;5057912;28;20465;-69
2022/12/18 07:25:07;;;;;;;46.90;21.40;;;-4.90;99.90;;;;;;5058281;28;20880;-67
2022/12/18 07:27:35;;;;;;;46.50;21.13;;;-4.90;99.90;;;;;;5059137;28;20459;-68
2022/12/18 07:30:02;;;;;;;53.63;20.30;;;-4.90;99.90;;;;;;5057810;28;20478;-68
2022/12/18 07:32:28;;;;;;;51.90;21.37;;;-4.80;99.90;;;;;;5058517;28;20482;-68
2022/12/18 07:34:55;;;;;;;53.80;22.53;;;-4.80;99.90;;;;;;5059230;28;20455;-67
2022/12/18 07:37:22;;;;;;;52.57;21.40;;;-4.80;99.90;;;;;;5060251;28;20520;-68
2022/12/18 07:39:49;;;;;;;47.73;18.60;;;-4.80;99.90;;;;;;5060091;28;20993;-68
2022/12/18 07:42:31;;;;;;;48.47;21.07;;;-4.70;99.90;;;;;;5061452;28;20549;-68
2022/12/18 07:44:59;;;;;;;43.20;18.03;;;-4.60;99.90;;;;;;5059085;28;20440;-67
2022/12/18 07:47:26;;;;;;;54.47;19.27;;;-4.60;99.90;;;;;;5058586;28;20570;-67
2022/12/18 07:49:53;;;;;;;48.47;21.10;;;-4.60;99.90;;;;;;5057828;28;20451;-67
2022/12/18 07:52:20;;;;;;;52.23;21.33;;;-4.70;99.90;;;;;;5057070;28;20465;-67
2022/12/18 07:54:48;;;;;;;51.10;20.33;;;-4.70;99.90;;;;;;5056727;28;20455;-67
2022/12/18 07:57:18;;;;;;;56.97;22.23;;;-4.80;99.90;;;;;;5056904;28;20497;-66
2022/12/18 07:59:45;;;;;;;56.00;21.27;;;-4.80;99.90;;;;;;5056697;28;20465;-67
2022/12/18 08:02:13;;;;;;;43.47;18.37;;;-4.80;99.90;;;;;;5057149;28;20531;-67
2022/12/18 08:04:40;;;;;;;57.10;20.50;;;-4.80;99.90;;;;;;5057045;28;20763;-67
2022/12/18 08:07:07;;;;;;;47.23;20.07;;;-4.60;99.90;;;;;;5056552;28;20490;-67
2022/12/18 08:09:34;;;;;;;53.00;21.17;;;-4.60;99.90;;;;;;5056673;28;20470;-68
2022/12/18 08:12:01;;;;;;;54.53;21.77;;;-4.50;99.90;;;;;;5056720;28;20493;-68
2022/12/18 08:14:27;;;;;;;39.77;19.00;;;-4.50;99.90;;;;;;5056487;28;20462;-67
2022/12/18 08:16:54;;;;;;;39.90;19.60;;;-4.40;99.90;;;;;;5056845;28;20783;-68
2022/12/18 08:19:22;;;;;;;46.93;21.50;;;-4.40;99.90;;;;;;5056947;28;20463;-68
2022/12/18 08:21:49;;;;;;;46.60;20.07;;;-4.40;99.90;;;;;;5056396;28;20457;-68
2022/12/18 08:24:16;;;;;;;49.30;19.50;;;-4.40;99.90;;;;;;5056621;28;20466;-68
2022/12/18 08:26:43;;;;;;;41.53;19.43;;;-4.40;99.90;;;;;;5056693;28;20553;-67
2022/12/18 08:29:10;;;;;;;43.83;20.97;;;-4.40;99.90;;;;;;5056284;28;20757;-67
2022/12/18 08:31:37;;;;;;;42.03;18.83;;;-4.30;99.90;;;;;;5056475;28;20566;-68
2022/12/18 08:34:04;;;;;;;42.10;19.57;;;-4.30;99.90;;;;;;5056438;28;20801;-69
2022/12/18 08:36:33;;;;;;;37.97;18.87;;;-4.30;99.90;;;;;;5055850;28;20550;-67
2022/12/18 08:38:59;;;;;;;42.93;18.50;;;-4.40;99.90;;;;;;5056233;28;20534;-68
2022/12/18 08:41:26;;;;;;;45.70;19.33;;;-4.50;99.90;;;;;;5056082;28;20566;-68
2022/12/18 08:46:39;;;;;;;39.70;18.90;;;-4.60;99.90;;;;;;5055859;28;20500;-68
2022/12/18 08:49:07;;;;;;;44.10;19.60;;;-4.60;99.90;;;;;;5055724;28;20459;-69
2022/12/18 08:51:35;;;;;;;34.53;19.50;;;-4.50;99.90;;;;;;5055845;28;20501;-68
2022/12/18 08:54:03;;;;;;;43.03;20.37;;;-4.40;99.90;;;;;;5055735;28;20542;-67
2022/12/18 08:56:30;;;;;;;39.43;19.33;;;-4.30;99.90;;;;;;5055663;28;20466;-67
2022/12/18 08:58:57;;;;;;;36.97;19.00;;;-4.20;99.90;;;;;;5055565;28;20930;-68
2022/12/18 09:01:24;;;;;;;38.30;18.00;;;-4.10;99.90;;;;;;5055981;28;20461;-69
2022/12/18 09:03:52;;;;;;;36.37;16.90;;;-4.10;99.90;;;;;;5055987;28;20493;-68
2022/12/18 09:06:20;;;;;;;35.00;17.23;;;-4.10;99.90;;;;;;5057766;28;20459;-66
2022/12/18 09:08:48;;;;;;;44.93;19.53;;;-4.10;99.90;;;;;;5056099;28;20469;-69
2022/12/18 09:11:21;;;;;;;39.63;20.77;;;-4.00;99.90;;;;;;5056005;28;20489;-67
2022/12/18 09:13:49;;;;;;;35.43;19.03;;;-4.10;99.90;;;;;;5055410;28;20730;-68
2022/12/18 09:16:16;;;;;;;38.67;18.13;;;-4.10;99.90;;;;;;5055081;28;20455;-68
2022/12/18 09:18:43;;;;;;;35.57;19.23;;;-4.00;99.90;;;;;;5057092;28;20487;-68
2022/12/18 09:21:11;;;;;;;34.60;18.70;;;-4.10;99.90;;;;;;5056335;28;20447;-68
2022/12/18 09:23:38;;;;;;;38.57;17.23;;;-4.10;99.90;;;;;;5055112;28;20459;-69
2022/12/18 09:26:06;;;;;;;42.97;18.00;;;-4.00;99.90;;;;;;5054064;28;20455;-67
2022/12/18 09:28:34;;;;;;;42.00;19.43;;;-3.90;99.90;;;;;;5055054;28;20466;-68
2022/12/18 09:31:05;;;;;;;43.30;18.63;;;-3.90;99.90;;;;;;5054899;28;20594;-69
2022/12/18 09:33:32;;;;;;;38.47;17.37;;;-3.80;99.90;;;;;;5054973;28;20444;-69
2022/12/18 09:36:01;;;;;;;42.57;19.37;;;-3.90;99.90;;;;;;5055075;28;20832;-69
2022/12/18 09:38:28;;;;;;;33.77;17.90;;;-4.00;99.90;;;;;;5054859;28;20455;-67
2022/12/18 09:41:00;;;;;;;39.87;20.03;;;-4.10;99.90;;;;;;5055017;28;20452;-68
2022/12/18 09:43:42;;;;;;;43.30;19.50;;;-4.00;99.90;;;;;;5055186;28;20523;-67
2022/12/18 09:46:12;;;;;;;45.57;18.73;;;-4.00;99.90;;;;;;5054818;28;20487;-67
2022/12/18 09:48:43;;;;;;;38.37;18.90;;;-3.90;99.90;;;;;;5055295;28;20458;-68
2022/12/18 09:51:15;;;;;;;39.73;17.20;;;-3.90;99.90;;;;;;5055091;28;20467;-68
2022/12/18 09:53:46;;;;;;;33.67;17.60;;;-3.90;99.90;;;;;;5054691;28;20443;-68
2022/12/18 09:56:18;;;;;;;40.47;20.83;;;-3.90;99.90;;;;;;5055096;28;20889;-67
2022/12/18 09:58:54;;;;;;;35.27;17.73;;;-3.90;99.90;;;;;;5055033;28;20453;-68
2022/12/18 10:01:23;;;;;;;35.77;17.80;;;-3.80;99.90;;;;;;5054773;28;20537;-67
2022/12/18 10:03:51;;;;;;;37.20;16.53;;;-3.60;99.90;;;;;;5054802;28;20455;-67
2022/12/18 10:06:23;;;;;;;36.70;17.50;;;-3.50;99.90;;;;;;5054957;28;20462;-68
2022/12/18 10:08:56;;;;;;;40.03;17.70;;;-3.40;99.90;;;;;;5055433;28;20482;-67
2022/12/18 10:11:39;;;;;;;39.90;17.67;;;-3.40;99.90;;;;;;5054824;28;20477;-68
2022/12/18 10:14:13;;;;;;;37.87;17.47;;;-3.50;99.90;;;;;;5054772;28;20439;-68
2022/12/18 10:16:48;;;;;;;42.93;19.33;;;-3.40;99.90;;;;;;5054563;28;20880;-68
2022/12/18 10:19:26;;;;;;;35.60;17.60;;;-3.40;99.90;;;;;;5054985;28;20522;-68
2022/12/18 10:22:03;;;;;;;44.03;19.40;;;-3.30;99.90;;;;;;5055498;28;20522;-68
2022/12/18 10:24:37;;;;;;;43.53;19.33;;;-3.30;99.90;;;;;;5055193;28;20439;-68
2022/12/18 10:27:14;;;;;;;40.87;19.60;;;-3.30;99.90;;;;;;5055613;28;20539;-67
2022/12/18 10:29:44;;;;;;;40.93;19.13;;;-3.20;99.90;;;;;;5054689;28;20537;-68
2022/12/18 10:32:16;;;;;;;44.77;19.20;;;-3.20;99.90;;;;;;5055322;28;20492;-67
2022/12/18 10:34:47;;;;;;;39.43;20.43;;;-3.20;99.90;;;;;;5055431;28;20824;-68
2022/12/18 10:37:17;;;;;;;40.30;19.73;;;-3.20;99.90;;;;;;5056317;28;20446;-67
2022/12/18 10:39:45;;;;;;;41.50;19.33;;;-3.10;99.90;;;;;;5058549;28;20443;-67
2022/12/18 10:42:17;;;;;;;44.37;19.53;;;-3.10;99.90;;;;;;5058666;28;20458;-68
2022/12/18 10:44:45;;;;;;;39.90;19.07;;;-3.10;99.90;;;;;;5058191;28;20508;-67
2022/12/18 10:47:16;;;;;;;41.37;19.70;;;-3.00;99.90;;;;;;5057930;28;20797;-67
2022/12/18 10:49:50;;;;;;;33.97;18.87;;;-2.90;99.90;;;;;;5058075;28;20529;-68
2022/12/18 10:52:19;;;;;;;40.33;20.10;;;-2.70;99.90;;;;;;5058478;28;20477;-68
2022/12/18 10:54:52;;;;;;;32.20;16.67;;;-2.70;99.90;;;;;;5058013;28;20756;-68
2022/12/18 10:57:37;;;;;;;34.37;16.63;;;-2.80;99.90;;;;;;5057662;28;20506;-67
2022/12/18 11:00:25;;;;;;;38.40;17.70;;;-2.80;99.90;;;;;;5058170;28;20444;-68
2022/12/18 11:02:52;;;;;;;40.73;18.70;;;-2.80;99.90;;;;;;5057709;28;20451;-67
2022/12/18 11:05:28;;;;;;;42.77;20.10;;;-2.80;99.90;;;;;;5058230;28;20459;-68
2022/12/18 11:07:56;;;;;;;49.37;21.40;;;-2.70;99.90;;;;;;5057583;28;20473;-68
2022/12/18 11:10:27;;;;;;;49.47;20.20;;;-2.60;99.90;;;;;;5058125;28;20473;-69
2022/12/18 11:12:54;;;;;;;45.03;19.67;;;-2.60;99.90;;;;;;5058461;28;20510;-67
2022/12/18 11:15:27;;;;;;;38.73;19.53;;;-2.50;99.90;;;;;;5057992;28;20491;-67
2022/12/18 11:17:54;;;;;;;34.53;18.23;;;-2.40;99.90;;;;;;5039848;28;20517;-69
2022/12/18 11:20:28;;;;;;;46.27;19.87;;;-2.60;99.90;;;;;;5039743;28;20460;-69
2022/12/18 11:22:58;;;;;;;41.57;19.23;;;-2.70;99.90;;;;;;5040515;28;20450;-69
2022/12/18 11:25:25;;;;;;;41.20;19.10;;;-2.90;99.90;;;;;;5039864;28;20475;-68
2022/12/18 11:27:53;;;;;;;31.87;18.23;;;-2.90;99.90;;;;;;5039999;28;20460;-69
2022/12/18 11:30:27;;;;;;;41.73;21.07;;;-2.90;99.90;;;;;;5040321;28;20477;-69
2022/12/18 11:33:01;;;;;;;38.37;18.87;;;-2.80;99.90;;;;;;5038957;28;20478;-68
2022/12/18 11:35:45;;;;;;;32.10;17.37;;;-2.90;99.90;;;;;;5041515;28;20446;-67
2022/12/18 11:38:22;;;;;;;40.63;18.50;;;-2.80;99.90;;;;;;5040520;28;20440;-68
2022/12/18 11:40:56;;;;;;;34.30;17.17;;;-2.80;99.90;;;;;;5039349;28;20448;-70
2022/12/18 11:43:28;;;;;;;38.90;18.27;;;-2.70;99.90;;;;;;5039555;28;20854;-70
2022/12/18 11:46:01;;;;;;;34.67;18.13;;;-2.70;99.90;;;;;;5039787;28;20587;-68
2022/12/18 11:48:32;;;;;;;33.63;17.40;;;-2.80;99.90;;;;;;5039564;28;20459;-69
2022/12/18 11:51:00;;;;;;;35.43;18.97;;;-2.70;99.90;;;;;;5039673;28;20455;-68
2022/12/18 11:53:28;;;;;;;41.17;18.80;;;-2.60;99.90;;;;;;5039185;28;20452;-69
2022/12/18 11:56:09;;;;;;;37.50;18.83;;;-2.50;99.90;;;;;;5038769;28;20470;-69
2022/12/18 11:58:48;;;;;;;30.93;17.90;;;-2.50;99.90;;;;;;5038920;28;20447;-69
2022/12/18 12:01:29;;;;;;;33.53;18.77;;;-2.50;99.90;;;;;;5037921;28;20893;-68
2022/12/18 12:04:14;;;;;;;35.40;18.23;;;-2.50;99.90;;;;;;5038002;28;20535;-68
2022/12/18 12:06:52;;;;;;;35.17;19.00;;;-2.50;99.90;;;;;;5037918;28;20440;-68
2022/12/18 12:09:25;;;;;;;39.03;19.30;;;-2.50;99.90;;;;;;5037735;28;20518;-68
2022/12/18 12:12:04;;;;;;;37.43;18.67;;;-2.60;99.90;;;;;;5037429;28;20805;-68
2022/12/18 12:14:44;;;;;;;34.07;16.23;;;-2.70;99.90;;;;;;5037629;28;20449;-69
2022/12/18 12:17:21;;;;;;;33.60;18.60;;;-2.80;99.90;;;;;;5037333;28;20450;-68
2022/12/18 12:19:55;;;;;;;31.80;16.47;;;-3.00;99.90;;;;;;5036677;28;20874;-67
2022/12/18 12:22:29;;;;;;;27.77;15.77;;;-3.10;99.90;;;;;;5037185;28;20435;-69
2022/12/18 12:25:18;;;;;;;33.70;16.67;;;-3.10;99.90;;;;;;5037107;28;20450;-69
2022/12/18 12:27:54;;;;;;;36.10;19.47;;;-3.10;99.90;;;;;;5037425;28;20466;-69
2022/12/18 12:30:26;;;;;;;36.93;17.43;;;-3.20;99.90;;;;;;5037498;28;20443;-69
2022/12/18 12:33:11;;;;;;;31.20;17.33;;;-3.20;99.90;;;;;;5037130;28;20464;-69
2022/12/18 12:35:48;;;;;;;33.23;16.90;;;-3.20;99.90;;;;;;5037515;28;20441;-69
2022/12/18 12:38:20;;;;;;;35.77;18.07;;;-3.20;99.90;;;;;;5036687;28;20889;-69
2022/12/18 12:40:52;;;;;;;36.97;18.20;;;-3.30;99.90;;;;;;5036743;28;20445;-69
2022/12/18 12:43:28;;;;;;;32.13;17.50;;;-3.30;99.90;;;;;;5037450;28;20433;-69
2022/12/18 12:45:59;;;;;;;33.20;17.30;;;-3.30;99.90;;;;;;5036402;28;20491;-70
2022/12/18 12:48:36;;;;;;;32.87;17.47;;;-3.20;99.90;;;;;;5037509;28;20551;-69